sensor_id;sensor_type;location;lat;lon;timestamp;P1;P2;P0
74419;PMS5003;62855;50.718;-2.460;2023-09-07T00:01:06;38.12;38.13;
74419;PMS5003;62855;50.718;-2.460;2023-09-07T00:04:05;39.03;39.11;
74419;PMS5003;62855;50.718;-2.460;2023-09-07T00:07:05;39.03;39.11;
74419;PMS5003;62855;50.718;-2.460;2023-09-07T00:10:06;38.12;40.09;
74419;PMS5003;62855;50.718;-2.460;2023-09-07T00:13:05;39.03;41.07;
74419;PMS5003;62855;50.718;-2.460;2023-09-07T00:16:05;39.93;41.07;
74419;PMS5003;62855;50.718;-2.460;2023-09-07T00:19:05;39.03;40.09;
74419;PMS5003;62855;50.718;-2.460;2023-09-07T00:22:06;38.12;39.11;
74419;PMS5003;62855;50.718;-2.460;2023-09-07T00:25:06;38.12;39.11;
74419;PMS5003;62855;50.718;-2.460;2023-09-07T00:28:05;36.30;38.13;
74419;PMS5003;62855;50.718;-2.460;2023-09-07T00:31:05;37.21;38.13;
74419;PMS5003;62855;50.718;-2.460;2023-09-07T00:34:05;34.49;35.20;
74419;PMS5003;62855;50.718;-2.460;2023-09-07T00:37:05;30.86;29.33;
74419;PMS5003;62855;50.718;-2.460;2023-09-07T00:40:06;30.86;27.38;
74419;PMS5003;62855;50.718;-2.460;2023-09-07T00:43:06;26.32;23.47;
74419;PMS5003;62855;50.718;-2.460;2023-09-07T00:46:06;25.41;22.49;
74419;PMS5003;62855;50.718;-2.460;2023-09-07T00:49:06;24.51;21.51;
74419;PMS5003;62855;50.718;-2.460;2023-09-07T00:52:05;22.69;19.56;
74419;PMS5003;62855;50.718;-2.460;2023-09-07T00:55:06;21.78;20.53;
74419;PMS5003;62855;50.718;-2.460;2023-09-07T00:58:05;19.06;17.60;
74419;PMS5003;62855;50.718;-2.460;2023-09-07T01:01:06;19.06;18.58;
74419;PMS5003;62855;50.718;-2.460;2023-09-07T01:04:06;18.15;17.60;
74419;PMS5003;62855;50.718;-2.460;2023-09-07T01:07:09;16.34;16.62;
74419;PMS5003;62855;50.718;-2.460;2023-09-07T01:10:06;16.34;16.62;
74419;PMS5003;62855;50.718;-2.460;2023-09-07T01:13:06;15.43;15.65;
74419;PMS5003;62855;50.718;-2.460;2023-09-07T01:16:06;15.43;15.65;
74419;PMS5003;62855;50.718;-2.460;2023-09-07T01:19:06;14.52;14.67;
74419;PMS5003;62855;50.718;-2.460;2023-09-07T01:22:06;14.52;14.67;
74419;PMS5003;62855;50.718;-2.460;2023-09-07T01:25:06;13.61;13.69;
74419;PMS5003;62855;50.718;-2.460;2023-09-07T01:28:06;12.71;12.71;
74419;PMS5003;62855;50.718;-2.460;2023-09-07T01:31:05;12.71;13.69;
74419;PMS5003;62855;50.718;-2.460;2023-09-07T01:34:05;13.61;13.69;
74419;PMS5003;62855;50.718;-2.460;2023-09-07T01:37:06;14.52;15.65;
74419;PMS5003;62855;50.718;-2.460;2023-09-07T01:40:06;16.34;17.60;
74419;PMS5003;62855;50.718;-2.460;2023-09-07T01:43:06;18.15;18.58;
74419;PMS5003;62855;50.718;-2.460;2023-09-07T01:46:06;19.97;20.53;
74419;PMS5003;62855;50.718;-2.460;2023-09-07T01:49:06;20.87;21.51;
74419;PMS5003;62855;50.718;-2.460;2023-09-07T01:52:06;20.87;22.49;
74419;PMS5003;62855;50.718;-2.460;2023-09-07T01:55:06;23.60;24.45;
74419;PMS5003;62855;50.718;-2.460;2023-09-07T01:58:05;26.32;27.38;
74419;PMS5003;62855;50.718;-2.460;2023-09-07T02:01:06;29.04;29.33;
74419;PMS5003;62855;50.718;-2.460;2023-09-07T02:04:06;30.86;30.31;
74419;PMS5003;62855;50.718;-2.460;2023-09-07T02:07:06;31.77;31.29;
74419;PMS5003;62855;50.718;-2.460;2023-09-07T02:10:06;36.30;35.20;
74419;PMS5003;62855;50.718;-2.460;2023-09-07T02:13:06;36.30;36.18;
74419;PMS5003;62855;50.718;-2.460;2023-09-07T02:16:06;39.93;37.16;
74419;PMS5003;62855;50.718;-2.460;2023-09-07T02:19:06;41.75;39.11;
74419;PMS5003;62855;50.718;-2.460;2023-09-07T02:22:06;41.75;40.09;
74419;PMS5003;62855;50.718;-2.460;2023-09-07T02:25:06;43.56;41.07;
74419;PMS5003;62855;50.718;-2.460;2023-09-07T02:28:06;41.75;40.09;
74419;PMS5003;62855;50.718;-2.460;2023-09-07T02:31:05;40.84;40.09;
74419;PMS5003;62855;50.718;-2.460;2023-09-07T02:34:06;39.93;40.09;
74419;PMS5003;62855;50.718;-2.460;2023-09-07T02:37:06;40.84;41.07;
74419;PMS5003;62855;50.718;-2.460;2023-09-07T02:40:06;38.12;38.13;
74419;PMS5003;62855;50.718;-2.460;2023-09-07T02:43:05;38.12;38.13;
74419;PMS5003;62855;50.718;-2.460;2023-09-07T02:46:05;39.03;40.09;
74419;PMS5003;62855;50.718;-2.460;2023-09-07T02:49:05;39.93;40.09;
74419;PMS5003;62855;50.718;-2.460;2023-09-07T02:52:06;40.84;41.07;
74419;PMS5003;62855;50.718;-2.460;2023-09-07T02:55:06;39.03;39.11;
74419;PMS5003;62855;50.718;-2.460;2023-09-07T02:58:05;39.03;39.11;
74419;PMS5003;62855;50.718;-2.460;2023-09-07T03:01:06;39.03;39.11;
74419;PMS5003;62855;50.718;-2.460;2023-09-07T03:04:06;38.12;39.11;
74419;PMS5003;62855;50.718;-2.460;2023-09-07T03:07:05;39.03;38.13;
74419;PMS5003;62855;50.718;-2.460;2023-09-07T03:10:06;36.30;36.18;
74419;PMS5003;62855;50.718;-2.460;2023-09-07T03:13:06;35.40;35.20;
74419;PMS5003;62855;50.718;-2.460;2023-09-07T03:16:06;32.67;33.25;
74419;PMS5003;62855;50.718;-2.460;2023-09-07T03:19:06;30.86;32.27;
74419;PMS5003;62855;50.718;-2.460;2023-09-07T03:22:06;31.77;33.25;
74419;PMS5003;62855;50.718;-2.460;2023-09-07T03:25:07;33.58;34.22;
74419;PMS5003;62855;50.718;-2.460;2023-09-07T03:28:06;32.67;32.27;
74419;PMS5003;62855;50.718;-2.460;2023-09-07T03:31:06;29.04;28.36;
74419;PMS5003;62855;50.718;-2.460;2023-09-07T03:34:06;28.14;27.38;
74419;PMS5003;62855;50.718;-2.460;2023-09-07T03:37:06;21.78;20.53;
74419;PMS5003;62855;50.718;-2.460;2023-09-07T03:40:06;19.97;17.60;
74419;PMS5003;62855;50.718;-2.460;2023-09-07T03:43:06;20.87;18.58;
74419;PMS5003;62855;50.718;-2.460;2023-09-07T03:46:06;19.06;17.60;
74419;PMS5003;62855;50.718;-2.460;2023-09-07T03:49:06;18.15;15.65;
74419;PMS5003;62855;50.718;-2.460;2023-09-07T03:52:06;17.24;15.65;
74419;PMS5003;62855;50.718;-2.460;2023-09-07T03:55:07;19.06;18.58;
74419;PMS5003;62855;50.718;-2.460;2023-09-07T03:58:06;28.14;27.38;
74419;PMS5003;62855;50.718;-2.460;2023-09-07T04:01:06;37.21;35.20;
74419;PMS5003;62855;50.718;-2.460;2023-09-07T04:04:06;45.38;42.05;
74419;PMS5003;62855;50.718;-2.460;2023-09-07T04:07:05;44.47;40.09;
74419;PMS5003;62855;50.718;-2.460;2023-09-07T04:10:06;46.29;42.05;
74419;PMS5003;62855;50.718;-2.460;2023-09-07T04:13:06;44.47;43.02;
74419;PMS5003;62855;50.718;-2.460;2023-09-07T04:16:05;43.56;42.05;
74419;PMS5003;62855;50.718;-2.460;2023-09-07T04:19:06;42.66;42.05;
74419;PMS5003;62855;50.718;-2.460;2023-09-07T04:22:06;43.56;42.05;
74419;PMS5003;62855;50.718;-2.460;2023-09-07T04:25:06;40.84;40.09;
74419;PMS5003;62855;50.718;-2.460;2023-09-07T04:28:06;41.75;40.09;
74419;PMS5003;62855;50.718;-2.460;2023-09-07T04:31:06;40.84;39.11;
74419;PMS5003;62855;50.718;-2.460;2023-09-07T04:34:05;37.21;36.18;
74419;PMS5003;62855;50.718;-2.460;2023-09-07T04:37:06;35.40;34.22;
74419;PMS5003;62855;50.718;-2.460;2023-09-07T04:40:06;33.58;32.27;
74419;PMS5003;62855;50.718;-2.460;2023-09-07T04:43:05;33.58;32.27;
74419;PMS5003;62855;50.718;-2.460;2023-09-07T04:46:05;33.58;32.27;
74419;PMS5003;62855;50.718;-2.460;2023-09-07T04:49:06;33.58;32.27;
74419;PMS5003;62855;50.718;-2.460;2023-09-07T04:52:05;32.67;32.27;
74419;PMS5003;62855;50.718;-2.460;2023-09-07T04:55:06;31.77;31.29;
74419;PMS5003;62855;50.718;-2.460;2023-09-07T04:58:06;30.86;31.29;
74419;PMS5003;62855;50.718;-2.460;2023-09-07T05:01:06;29.95;31.29;
74419;PMS5003;62855;50.718;-2.460;2023-09-07T05:04:05;36.30;36.18;
74419;PMS5003;62855;50.718;-2.460;2023-09-07T05:07:05;39.03;38.13;
74419;PMS5003;62855;50.718;-2.460;2023-09-07T05:10:06;39.93;39.11;
74419;PMS5003;62855;50.718;-2.460;2023-09-07T05:13:06;39.03;38.13;
74419;PMS5003;62855;50.718;-2.460;2023-09-07T05:16:06;39.93;37.16;
74419;PMS5003;62855;50.718;-2.460;2023-09-07T05:19:06;38.12;36.18;
74419;PMS5003;62855;50.718;-2.460;2023-09-07T05:22:06;38.12;35.20;
74419;PMS5003;62855;50.718;-2.460;2023-09-07T05:25:06;36.30;34.22;
74419;PMS5003;62855;50.718;-2.460;2023-09-07T05:28:06;35.40;34.22;
74419;PMS5003;62855;50.718;-2.460;2023-09-07T05:31:06;33.58;32.27;
74419;PMS5003;62855;50.718;-2.460;2023-09-07T05:34:06;30.86;28.36;
74419;PMS5003;62855;50.718;-2.460;2023-09-07T05:37:05;29.04;27.38;
74419;PMS5003;62855;50.718;-2.460;2023-09-07T05:40:06;26.32;24.45;
74419;PMS5003;62855;50.718;-2.460;2023-09-07T05:43:06;25.41;24.45;
74419;PMS5003;62855;50.718;-2.460;2023-09-07T05:46:06;22.69;23.47;
74419;PMS5003;62855;50.718;-2.460;2023-09-07T05:49:06;20.87;21.51;
74419;PMS5003;62855;50.718;-2.460;2023-09-07T05:52:06;18.15;18.58;
74419;PMS5003;62855;50.718;-2.460;2023-09-07T05:55:06;17.24;17.60;
74419;PMS5003;62855;50.718;-2.460;2023-09-07T05:58:06;16.34;16.62;
74419;PMS5003;62855;50.718;-2.460;2023-09-07T06:01:06;16.34;16.62;
74419;PMS5003;62855;50.718;-2.460;2023-09-07T06:04:06;18.15;18.58;
74419;PMS5003;62855;50.718;-2.460;2023-09-07T06:07:06;18.15;18.58;
74419;PMS5003;62855;50.718;-2.460;2023-09-07T06:10:06;21.78;22.49;
74419;PMS5003;62855;50.718;-2.460;2023-09-07T06:13:06;23.60;24.45;
74419;PMS5003;62855;50.718;-2.460;2023-09-07T06:16:06;24.51;24.45;
74419;PMS5003;62855;50.718;-2.460;2023-09-07T06:19:06;26.32;26.40;
74419;PMS5003;62855;50.718;-2.460;2023-09-07T06:22:06;28.14;28.36;
74419;PMS5003;62855;50.718;-2.460;2023-09-07T06:25:06;30.86;31.29;
74419;PMS5003;62855;50.718;-2.460;2023-09-07T06:28:06;29.04;29.33;
74419;PMS5003;62855;50.718;-2.460;2023-09-07T06:31:05;24.51;25.42;
74419;PMS5003;62855;50.718;-2.460;2023-09-07T06:34:05;21.78;20.53;
74419;PMS5003;62855;50.718;-2.460;2023-09-07T06:37:05;20.87;19.56;
74419;PMS5003;62855;50.718;-2.460;2023-09-07T06:40:07;21.78;20.53;
74419;PMS5003;62855;50.718;-2.460;2023-09-07T06:43:05;21.78;20.53;
74419;PMS5003;62855;50.718;-2.460;2023-09-07T06:46:06;32.67;29.33;
74419;PMS5003;62855;50.718;-2.460;2023-09-07T06:49:06;38.12;35.20;
74419;PMS5003;62855;50.718;-2.460;2023-09-07T06:52:05;39.03;35.20;
74419;PMS5003;62855;50.718;-2.460;2023-09-07T06:55:06;29.04;27.38;
74419;PMS5003;62855;50.718;-2.460;2023-09-07T06:58:05;26.32;24.45;
74419;PMS5003;62855;50.718;-2.460;2023-09-07T07:01:05;23.60;21.51;
74419;PMS5003;62855;50.718;-2.460;2023-09-07T07:04:05;22.69;21.51;
74419;PMS5003;62855;50.718;-2.460;2023-09-07T07:07:06;23.60;22.49;
74419;PMS5003;62855;50.718;-2.460;2023-09-07T07:10:06;24.51;24.45;
74419;PMS5003;62855;50.718;-2.460;2023-09-07T07:13:06;24.51;24.45;
74419;PMS5003;62855;50.718;-2.460;2023-09-07T07:16:06;25.41;25.42;
74419;PMS5003;62855;50.718;-2.460;2023-09-07T07:19:06;26.32;27.38;
74419;PMS5003;62855;50.718;-2.460;2023-09-07T07:22:06;26.32;27.38;
74419;PMS5003;62855;50.718;-2.460;2023-09-07T07:25:06;26.32;28.36;
74419;PMS5003;62855;50.718;-2.460;2023-09-07T07:28:06;27.23;29.33;
74419;PMS5003;62855;50.718;-2.460;2023-09-07T07:31:07;27.23;29.33;
74419;PMS5003;62855;50.718;-2.460;2023-09-07T07:34:05;27.23;29.33;
74419;PMS5003;62855;50.718;-2.460;2023-09-07T07:37:05;25.41;27.38;
74419;PMS5003;62855;50.718;-2.460;2023-09-07T07:40:06;24.51;25.42;
74419;PMS5003;62855;50.718;-2.460;2023-09-07T07:43:05;22.69;24.45;
74419;PMS5003;62855;50.718;-2.460;2023-09-07T07:46:07;22.69;23.47;
74419;PMS5003;62855;50.718;-2.460;2023-09-07T07:49:06;22.69;23.47;
74419;PMS5003;62855;50.718;-2.460;2023-09-07T07:52:06;22.69;23.47;
74419;PMS5003;62855;50.718;-2.460;2023-09-07T07:55:06;21.78;22.49;
74419;PMS5003;62855;50.718;-2.460;2023-09-07T07:58:06;28.14;26.40;
74419;PMS5003;62855;50.718;-2.460;2023-09-07T08:04:06;49.01;44.00;
74419;PMS5003;62855;50.718;-2.460;2023-09-07T08:07:06;48.10;44.00;
74419;PMS5003;62855;50.718;-2.460;2023-09-07T08:10:06;43.56;39.11;
74419;PMS5003;62855;50.718;-2.460;2023-09-07T08:13:06;41.75;37.16;
74419;PMS5003;62855;50.718;-2.460;2023-09-07T08:16:06;37.21;34.22;
74419;PMS5003;62855;50.718;-2.460;2023-09-07T08:19:06;32.67;30.31;
74419;PMS5003;62855;50.718;-2.460;2023-09-07T08:22:06;30.86;28.36;
74419;PMS5003;62855;50.718;-2.460;2023-09-07T08:25:06;26.32;25.42;
74419;PMS5003;62855;50.718;-2.460;2023-09-07T08:28:05;25.41;24.45;
74419;PMS5003;62855;50.718;-2.460;2023-09-07T08:31:05;23.60;23.47;
74419;PMS5003;62855;50.718;-2.460;2023-09-07T08:34:06;22.69;22.49;
74419;PMS5003;62855;50.718;-2.460;2023-09-07T08:37:05;24.51;26.40;
74419;PMS5003;62855;50.718;-2.460;2023-09-07T08:40:06;32.67;31.29;
74419;PMS5003;62855;50.718;-2.460;2023-09-07T08:43:05;43.56;41.07;
74419;PMS5003;62855;50.718;-2.460;2023-09-07T08:46:09;48.10;45.96;
74419;PMS5003;62855;50.718;-2.460;2023-09-07T08:49:06;47.20;44.98;
74419;PMS5003;62855;50.718;-2.460;2023-09-07T08:52:06;46.29;44.98;
74419;PMS5003;62855;50.718;-2.460;2023-09-07T08:55:06;43.56;43.02;
74419;PMS5003;62855;50.718;-2.460;2023-09-07T08:58:06;43.56;43.02;
74419;PMS5003;62855;50.718;-2.460;2023-09-07T09:01:06;40.84;41.07;
74419;PMS5003;62855;50.718;-2.460;2023-09-07T09:04:06;38.12;38.13;
74419;PMS5003;62855;50.718;-2.460;2023-09-07T09:07:06;36.30;36.18;
74419;PMS5003;62855;50.718;-2.460;2023-09-07T09:10:06;34.49;35.20;
74419;PMS5003;62855;50.718;-2.460;2023-09-07T09:13:06;32.67;32.27;
74419;PMS5003;62855;50.718;-2.460;2023-09-07T09:16:05;33.58;35.20;
74419;PMS5003;62855;50.718;-2.460;2023-09-07T09:19:06;39.93;39.11;
74419;PMS5003;62855;50.718;-2.460;2023-09-07T09:22:06;44.47;42.05;
74419;PMS5003;62855;50.718;-2.460;2023-09-07T09:25:07;47.20;43.02;
74419;PMS5003;62855;50.718;-2.460;2023-09-07T09:28:08;47.20;43.02;
74419;PMS5003;62855;50.718;-2.460;2023-09-07T09:31:06;44.47;40.09;
74419;PMS5003;62855;50.718;-2.460;2023-09-07T09:34:06;40.84;38.13;
74419;PMS5003;62855;50.718;-2.460;2023-09-07T09:37:12;39.93;38.13;
74419;PMS5003;62855;50.718;-2.460;2023-09-07T09:40:06;37.21;35.20;
74419;PMS5003;62855;50.718;-2.460;2023-09-07T09:43:06;36.30;35.20;
74419;PMS5003;62855;50.718;-2.460;2023-09-07T09:46:05;33.58;32.27;
74419;PMS5003;62855;50.718;-2.460;2023-09-07T09:49:07;30.86;30.31;
74419;PMS5003;62855;50.718;-2.460;2023-09-07T09:52:06;26.32;25.42;
74419;PMS5003;62855;50.718;-2.460;2023-09-07T09:55:06;23.60;24.45;
74419;PMS5003;62855;50.718;-2.460;2023-09-07T09:58:06;20.87;22.49;
74419;PMS5003;62855;50.718;-2.460;2023-09-07T10:01:06;19.06;20.53;
74419;PMS5003;62855;50.718;-2.460;2023-09-07T10:04:06;18.15;19.56;
74419;PMS5003;62855;50.718;-2.460;2023-09-07T10:07:05;17.24;18.58;
74419;PMS5003;62855;50.718;-2.460;2023-09-07T10:10:06;16.34;17.60;
74419;PMS5003;62855;50.718;-2.460;2023-09-07T10:13:06;15.43;16.62;
74419;PMS5003;62855;50.718;-2.460;2023-09-07T10:16:06;17.24;18.58;
74419;PMS5003;62855;50.718;-2.460;2023-09-07T10:22:06;20.87;20.53;
74419;PMS5003;62855;50.718;-2.460;2023-09-07T10:25:07;21.78;21.51;
74419;PMS5003;62855;50.718;-2.460;2023-09-07T10:28:05;22.69;22.49;
74419;PMS5003;62855;50.718;-2.460;2023-09-07T10:31:06;24.51;23.47;
74419;PMS5003;62855;50.718;-2.460;2023-09-07T10:34:07;26.32;25.42;
74419;PMS5003;62855;50.718;-2.460;2023-09-07T10:37:05;28.14;28.36;
74419;PMS5003;62855;50.718;-2.460;2023-09-07T10:40:06;30.86;30.31;
74419;PMS5003;62855;50.718;-2.460;2023-09-07T10:43:06;31.77;31.29;
74419;PMS5003;62855;50.718;-2.460;2023-09-07T10:46:06;32.67;31.29;
74419;PMS5003;62855;50.718;-2.460;2023-09-07T10:49:06;30.86;32.27;
74419;PMS5003;62855;50.718;-2.460;2023-09-07T10:52:05;33.58;35.20;
74419;PMS5003;62855;50.718;-2.460;2023-09-07T10:55:06;39.03;40.09;
74419;PMS5003;62855;50.718;-2.460;2023-09-07T10:58:05;39.03;38.13;
74419;PMS5003;62855;50.718;-2.460;2023-09-07T11:01:06;38.12;37.16;
74419;PMS5003;62855;50.718;-2.460;2023-09-07T11:04:05;35.40;33.25;
74419;PMS5003;62855;50.718;-2.460;2023-09-07T11:07:05;32.67;30.31;
74419;PMS5003;62855;50.718;-2.460;2023-09-07T11:10:06;31.77;29.33;
74419;PMS5003;62855;50.718;-2.460;2023-09-07T11:13:06;30.86;28.36;
74419;PMS5003;62855;50.718;-2.460;2023-09-07T11:16:07;29.04;26.40;
74419;PMS5003;62855;50.718;-2.460;2023-09-07T11:19:06;27.23;25.42;
74419;PMS5003;62855;50.718;-2.460;2023-09-07T11:22:08;24.51;23.47;
74419;PMS5003;62855;50.718;-2.460;2023-09-07T11:25:06;22.69;21.51;
74419;PMS5003;62855;50.718;-2.460;2023-09-07T11:28:06;20.87;19.56;
74419;PMS5003;62855;50.718;-2.460;2023-09-07T11:31:06;17.24;16.62;
74419;PMS5003;62855;50.718;-2.460;2023-09-07T11:34:08;16.34;15.65;
74419;PMS5003;62855;50.718;-2.460;2023-09-07T11:37:06;14.52;15.65;
74419;PMS5003;62855;50.718;-2.460;2023-09-07T11:40:06;12.71;13.69;
74419;PMS5003;62855;50.718;-2.460;2023-09-07T11:43:06;11.80;12.71;
74419;PMS5003;62855;50.718;-2.460;2023-09-07T11:46:06;11.80;12.71;
74419;PMS5003;62855;50.718;-2.460;2023-09-07T11:49:06;10.89;11.73;
74419;PMS5003;62855;50.718;-2.460;2023-09-07T11:52:05;11.80;12.71;
74419;PMS5003;62855;50.718;-2.460;2023-09-07T11:55:06;11.80;12.71;
74419;PMS5003;62855;50.718;-2.460;2023-09-07T11:58:05;11.80;12.71;
74419;PMS5003;62855;50.718;-2.460;2023-09-07T12:01:06;10.89;10.76;
74419;PMS5003;62855;50.718;-2.460;2023-09-07T12:04:06;9.98;10.76;
74419;PMS5003;62855;50.718;-2.460;2023-09-07T12:07:06;10.89;10.76;
74419;PMS5003;62855;50.718;-2.460;2023-09-07T12:10:06;10.89;10.76;
74419;PMS5003;62855;50.718;-2.460;2023-09-07T12:13:06;11.80;11.73;
74419;PMS5003;62855;50.718;-2.460;2023-09-07T12:16:06;10.89;10.76;
74419;PMS5003;62855;50.718;-2.460;2023-09-07T12:19:06;10.89;11.73;
74419;PMS5003;62855;50.718;-2.460;2023-09-07T12:22:06;11.80;11.73;
74419;PMS5003;62855;50.718;-2.460;2023-09-07T12:25:07;10.89;11.73;
74419;PMS5003;62855;50.718;-2.460;2023-09-07T12:28:06;20.87;19.56;
74419;PMS5003;62855;50.718;-2.460;2023-09-07T12:31:06;28.14;26.40;
74419;PMS5003;62855;50.718;-2.460;2023-09-07T12:34:05;34.49;32.27;
74419;PMS5003;62855;50.718;-2.460;2023-09-07T12:37:06;33.58;32.27;
74419;PMS5003;62855;50.718;-2.460;2023-09-07T12:40:06;32.67;31.29;
74419;PMS5003;62855;50.718;-2.460;2023-09-07T12:43:06;31.77;30.31;
74419;PMS5003;62855;50.718;-2.460;2023-09-07T12:46:06;29.95;28.36;
74419;PMS5003;62855;50.718;-2.460;2023-09-07T12:49:06;29.04;27.38;
74419;PMS5003;62855;50.718;-2.460;2023-09-07T12:52:05;25.41;25.42;
74419;PMS5003;62855;50.718;-2.460;2023-09-07T12:55:06;24.51;23.47;
74419;PMS5003;62855;50.718;-2.460;2023-09-07T12:58:05;23.60;23.47;
74419;PMS5003;62855;50.718;-2.460;2023-09-07T13:01:06;21.78;21.51;
74419;PMS5003;62855;50.718;-2.460;2023-09-07T13:04:06;19.97;19.56;
74419;PMS5003;62855;50.718;-2.460;2023-09-07T13:07:06;16.34;17.60;
74419;PMS5003;62855;50.718;-2.460;2023-09-07T13:10:06;15.43;16.62;
74419;PMS5003;62855;50.718;-2.460;2023-09-07T13:13:06;13.61;14.67;
74419;PMS5003;62855;50.718;-2.460;2023-09-07T13:16:06;13.61;14.67;
74419;PMS5003;62855;50.718;-2.460;2023-09-07T13:19:06;12.71;13.69;
74419;PMS5003;62855;50.718;-2.460;2023-09-07T13:22:05;20.87;21.51;
74419;PMS5003;62855;50.718;-2.460;2023-09-07T13:25:06;29.04;29.33;
74419;PMS5003;62855;50.718;-2.460;2023-09-07T13:28:06;39.03;37.16;
74419;PMS5003;62855;50.718;-2.460;2023-09-07T13:31:06;44.47;42.05;
74419;PMS5003;62855;50.718;-2.460;2023-09-07T13:34:06;45.38;42.05;
74419;PMS5003;62855;50.718;-2.460;2023-09-07T13:37:06;46.29;43.02;
74419;PMS5003;62855;50.718;-2.460;2023-09-07T13:40:06;44.47;41.07;
74419;PMS5003;62855;50.718;-2.460;2023-09-07T13:43:06;44.47;42.05;
74419;PMS5003;62855;50.718;-2.460;2023-09-07T13:46:05;41.75;41.07;
74419;PMS5003;62855;50.718;-2.460;2023-09-07T13:49:05;40.84;40.09;
74419;PMS5003;62855;50.718;-2.460;2023-09-07T13:52:05;43.56;42.05;
74419;PMS5003;62855;50.718;-2.460;2023-09-07T13:55:06;40.84;40.09;
74419;PMS5003;62855;50.718;-2.460;2023-09-07T13:58:06;39.93;39.11;
74419;PMS5003;62855;50.718;-2.460;2023-09-07T14:01:06;39.93;39.11;
74419;PMS5003;62855;50.718;-2.460;2023-09-07T14:04:05;39.03;39.11;
74419;PMS5003;62855;50.718;-2.460;2023-09-07T14:07:05;39.03;39.11;
74419;PMS5003;62855;50.718;-2.460;2023-09-07T14:10:06;39.03;39.11;
74419;PMS5003;62855;50.718;-2.460;2023-09-07T14:13:06;39.03;40.09;
74419;PMS5003;62855;50.718;-2.460;2023-09-07T14:16:06;39.03;40.09;
74419;PMS5003;62855;50.718;-2.460;2023-09-07T14:19:06;42.66;43.02;
74419;PMS5003;62855;50.718;-2.460;2023-09-07T14:22:06;43.56;43.02;
74419;PMS5003;62855;50.718;-2.460;2023-09-07T14:25:06;40.84;38.13;
74419;PMS5003;62855;50.718;-2.460;2023-09-07T14:28:06;35.40;33.25;
74419;PMS5003;62855;50.718;-2.460;2023-09-07T14:31:06;34.49;32.27;
74419;PMS5003;62855;50.718;-2.460;2023-09-07T14:34:05;34.49;32.27;
74419;PMS5003;62855;50.718;-2.460;2023-09-07T14:37:06;30.86;28.36;
74419;PMS5003;62855;50.718;-2.460;2023-09-07T14:40:06;28.14;26.40;
74419;PMS5003;62855;50.718;-2.460;2023-09-07T14:43:06;27.23;25.42;
74419;PMS5003;62855;50.718;-2.460;2023-09-07T14:46:06;23.60;23.47;
74419;PMS5003;62855;50.718;-2.460;2023-09-07T14:49:06;22.69;22.49;
74419;PMS5003;62855;50.718;-2.460;2023-09-07T14:52:06;20.87;20.53;
74419;PMS5003;62855;50.718;-2.460;2023-09-07T14:55:07;18.15;18.58;
74419;PMS5003;62855;50.718;-2.460;2023-09-07T14:58:05;15.43;15.65;
74419;PMS5003;62855;50.718;-2.460;2023-09-07T15:01:06;12.71;13.69;
74419;PMS5003;62855;50.718;-2.460;2023-09-07T15:04:06;12.71;12.71;
74419;PMS5003;62855;50.718;-2.460;2023-09-07T15:07:06;11.80;12.71;
74419;PMS5003;62855;50.718;-2.460;2023-09-07T15:10:06;11.80;12.71;
74419;PMS5003;62855;50.718;-2.460;2023-09-07T15:13:06;11.80;11.73;
74419;PMS5003;62855;50.718;-2.460;2023-09-07T15:16:06;11.80;11.73;
74419;PMS5003;62855;50.718;-2.460;2023-09-07T15:19:06;11.80;11.73;
74419;PMS5003;62855;50.718;-2.460;2023-09-07T15:22:06;12.71;12.71;
74419;PMS5003;62855;50.718;-2.460;2023-09-07T15:25:06;14.52;14.67;
74419;PMS5003;62855;50.718;-2.460;2023-09-07T15:28:06;17.24;17.60;
74419;PMS5003;62855;50.718;-2.460;2023-09-07T15:31:06;19.97;19.56;
74419;PMS5003;62855;50.718;-2.460;2023-09-07T15:34:05;19.97;19.56;
74419;PMS5003;62855;50.718;-2.460;2023-09-07T15:37:05;21.78;22.49;
74419;PMS5003;62855;50.718;-2.460;2023-09-07T15:40:07;22.69;22.49;
74419;PMS5003;62855;50.718;-2.460;2023-09-07T15:43:05;23.60;23.47;
74419;PMS5003;62855;50.718;-2.460;2023-09-07T15:46:05;24.51;24.45;
74419;PMS5003;62855;50.718;-2.460;2023-09-07T15:49:05;25.41;25.42;
74419;PMS5003;62855;50.718;-2.460;2023-09-07T15:52:06;25.41;24.45;
74419;PMS5003;62855;50.718;-2.460;2023-09-07T15:55:06;22.69;22.49;
74419;PMS5003;62855;50.718;-2.460;2023-09-07T15:58:05;20.87;20.53;
74419;PMS5003;62855;50.718;-2.460;2023-09-07T16:01:06;19.06;18.58;
74419;PMS5003;62855;50.718;-2.460;2023-09-07T16:04:06;18.15;17.60;
74419;PMS5003;62855;50.718;-2.460;2023-09-07T16:07:06;16.34;16.62;
74419;PMS5003;62855;50.718;-2.460;2023-09-07T16:10:06;17.24;17.60;
74419;PMS5003;62855;50.718;-2.460;2023-09-07T16:13:05;15.43;15.65;
74419;PMS5003;62855;50.718;-2.460;2023-09-07T16:16:06;17.24;17.60;
74419;PMS5003;62855;50.718;-2.460;2023-09-07T16:19:06;21.78;19.56;
74419;PMS5003;62855;50.718;-2.460;2023-09-07T16:22:07;23.60;20.53;
74419;PMS5003;62855;50.718;-2.460;2023-09-07T16:25:06;24.51;21.51;
74419;PMS5003;62855;50.718;-2.460;2023-09-07T16:28:05;23.60;20.53;
74419;PMS5003;62855;50.718;-2.460;2023-09-07T16:31:05;26.32;23.47;
74419;PMS5003;62855;50.718;-2.460;2023-09-07T16:34:05;27.23;24.45;
74419;PMS5003;62855;50.718;-2.460;2023-09-07T16:37:06;28.14;25.42;
74419;PMS5003;62855;50.718;-2.460;2023-09-07T16:40:06;28.14;25.42;
74419;PMS5003;62855;50.718;-2.460;2023-09-07T16:43:05;26.32;24.45;
74419;PMS5003;62855;50.718;-2.460;2023-09-07T16:46:05;26.32;24.45;
74419;PMS5003;62855;50.718;-2.460;2023-09-07T16:49:05;25.41;24.45;
74419;PMS5003;62855;50.718;-2.460;2023-09-07T16:52:06;27.23;26.40;
74419;PMS5003;62855;50.718;-2.460;2023-09-07T16:55:06;24.51;24.45;
74419;PMS5003;62855;50.718;-2.460;2023-09-07T16:58:06;28.14;24.45;
74419;PMS5003;62855;50.718;-2.460;2023-09-07T17:01:05;31.77;26.40;
74419;PMS5003;62855;50.718;-2.460;2023-09-07T17:04:06;36.30;30.31;
74419;PMS5003;62855;50.718;-2.460;2023-09-07T17:08:06;40.84;35.20;
74419;PMS5003;62855;50.718;-2.460;2023-09-07T17:11:06;39.93;35.20;
74419;PMS5003;62855;50.718;-2.460;2023-09-07T17:14:08;43.56;39.11;
74419;PMS5003;62855;50.718;-2.460;2023-09-07T17:17:06;43.56;39.11;
74419;PMS5003;62855;50.718;-2.460;2023-09-07T17:20:06;41.75;40.09;
74419;PMS5003;62855;50.718;-2.460;2023-09-07T17:23:05;39.93;38.13;
74419;PMS5003;62855;50.718;-2.460;2023-09-07T17:26:05;32.67;32.27;
74419;PMS5003;62855;50.718;-2.460;2023-09-07T17:29:05;27.23;25.42;
74419;PMS5003;62855;50.718;-2.460;2023-09-07T17:32:05;25.41;23.47;
74419;PMS5003;62855;50.718;-2.460;2023-09-07T17:35:06;24.51;21.51;
74419;PMS5003;62855;50.718;-2.460;2023-09-07T17:38:06;22.69;20.53;
74419;PMS5003;62855;50.718;-2.460;2023-09-07T17:41:06;21.78;19.56;
74419;PMS5003;62855;50.718;-2.460;2023-09-07T17:44:06;20.87;18.58;
74419;PMS5003;62855;50.718;-2.460;2023-09-07T17:47:07;20.87;18.58;
74419;PMS5003;62855;50.718;-2.460;2023-09-07T17:50:06;19.06;16.62;
74419;PMS5003;62855;50.718;-2.460;2023-09-07T17:53:05;17.24;15.65;
74419;PMS5003;62855;50.718;-2.460;2023-09-07T17:56:05;16.34;14.67;